sensor_id;sensor_type;location;lat;lon;timestamp;pressure;altitude;pressure_sealevel;temperature;humidity
29909;BME280;36247;51.952;6.146;2023-09-30T00:02:15;102361.22;;;12.88;100.00
29909;BME280;36247;51.952;6.146;2023-09-30T00:04:40;102351.66;;;12.95;100.00
29909;BME280;36247;51.952;6.146;2023-09-30T00:07:06;102358.38;;;12.82;100.00
29909;BME280;36247;51.952;6.146;2023-09-30T00:09:32;102360.66;;;12.70;100.00
29909;BME280;36247;51.952;6.146;2023-09-30T00:11:57;102359.06;;;12.75;100.00
29909;BME280;36247;51.952;6.146;2023-09-30T00:14:23;102370.38;;;12.68;100.00
29909;BME280;36247;51.952;6.146;2023-09-30T00:16:49;102364.78;;;12.89;100.00
29909;BME280;36247;51.952;6.146;2023-09-30T00:19:16;102345.31;;;12.90;100.00
29909;BME280;36247;51.952;6.146;2023-09-30T00:21:41;102347.88;;;12.87;100.00
29909;BME280;36247;51.952;6.146;2023-09-30T00:24:07;102351.38;;;12.86;100.00
29909;BME280;36247;51.952;6.146;2023-09-30T00:26:33;102367.88;;;12.74;100.00
29909;BME280;36247;51.952;6.146;2023-09-30T00:28:59;102371.97;;;12.63;100.00
29909;BME280;36247;51.952;6.146;2023-09-30T00:31:24;102365.53;;;12.85;100.00
29909;BME280;36247;51.952;6.146;2023-09-30T00:33:50;102359.25;;;12.81;100.00
29909;BME280;36247;51.952;6.146;2023-09-30T00:36:15;102367.47;;;12.91;100.00
29909;BME280;36247;51.952;6.146;2023-09-30T00:38:41;102359.44;;;12.89;100.00
29909;BME280;36247;51.952;6.146;2023-09-30T00:41:07;102363.09;;;12.93;100.00
29909;BME280;36247;51.952;6.146;2023-09-30T00:43:33;102361.44;;;12.96;100.00
29909;BME280;36247;51.952;6.146;2023-09-30T00:46:34;102367.53;;;12.92;100.00
29909;BME280;36247;51.952;6.146;2023-09-30T00:49:01;102366.16;;;12.76;100.00
29909;BME280;36247;51.952;6.146;2023-09-30T00:51:28;102367.97;;;12.77;100.00
29909;BME280;36247;51.952;6.146;2023-09-30T00:53:55;102382.47;;;12.58;100.00
29909;BME280;36247;51.952;6.146;2023-09-30T00:56:29;102380.28;;;12.74;100.00
29909;BME280;36247;51.952;6.146;2023-09-30T00:58:59;102379.75;;;12.85;100.00
29909;BME280;36247;51.952;6.146;2023-09-30T01:01:25;102380.56;;;12.52;100.00
29909;BME280;36247;51.952;6.146;2023-09-30T01:03:54;102383.41;;;12.59;100.00
29909;BME280;36247;51.952;6.146;2023-09-30T01:06:20;102388.41;;;12.49;100.00
29909;BME280;36247;51.952;6.146;2023-09-30T01:08:46;102401.66;;;12.48;100.00
29909;BME280;36247;51.952;6.146;2023-09-30T01:11:12;102401.13;;;12.60;100.00
29909;BME280;36247;51.952;6.146;2023-09-30T01:13:40;102401.81;;;12.52;100.00
29909;BME280;36247;51.952;6.146;2023-09-30T01:16:07;102405.28;;;12.50;100.00
29909;BME280;36247;51.952;6.146;2023-09-30T01:18:36;102404.91;;;12.66;100.00
29909;BME280;36247;51.952;6.146;2023-09-30T01:21:03;102401.44;;;12.69;100.00
29909;BME280;36247;51.952;6.146;2023-09-30T01:23:33;102392.44;;;12.65;100.00
29909;BME280;36247;51.952;6.146;2023-09-30T01:26:03;102397.41;;;12.53;100.00
29909;BME280;36247;51.952;6.146;2023-09-30T01:28:30;102401.91;;;12.56;100.00
29909;BME280;36247;51.952;6.146;2023-09-30T01:30:58;102405.81;;;12.68;100.00
29909;BME280;36247;51.952;6.146;2023-09-30T01:33:24;102397.63;;;12.61;100.00
29909;BME280;36247;51.952;6.146;2023-09-30T01:35:49;102399.44;;;12.62;100.00
29909;BME280;36247;51.952;6.146;2023-09-30T01:38:15;102396.69;;;12.59;100.00
29909;BME280;36247;51.952;6.146;2023-09-30T01:40:41;102405.66;;;12.62;100.00
29909;BME280;36247;51.952;6.146;2023-09-30T01:43:07;102399.63;;;12.68;100.00
29909;BME280;36247;51.952;6.146;2023-09-30T01:45:33;102413.41;;;12.55;100.00
29909;BME280;36247;51.952;6.146;2023-09-30T01:48:01;102417.88;;;12.56;100.00
29909;BME280;36247;51.952;6.146;2023-09-30T01:50:28;102424.16;;;12.30;100.00
29909;BME280;36247;51.952;6.146;2023-09-30T01:52:53;102422.50;;;12.34;100.00
29909;BME280;36247;51.952;6.146;2023-09-30T01:55:19;102419.09;;;12.38;100.00
29909;BME280;36247;51.952;6.146;2023-09-30T01:57:45;102405.00;;;12.41;100.00
29909;BME280;36247;51.952;6.146;2023-09-30T02:00:10;102416.47;;;12.40;100.00
29909;BME280;36247;51.952;6.146;2023-09-30T02:02:41;102408.34;;;12.35;100.00
29909;BME280;36247;51.952;6.146;2023-09-30T02:05:07;102402.28;;;12.39;100.00
29909;BME280;36247;51.952;6.146;2023-09-30T02:07:34;102414.56;;;12.35;100.00
29909;BME280;36247;51.952;6.146;2023-09-30T02:10:00;102402.19;;;12.36;100.00
29909;BME280;36247;51.952;6.146;2023-09-30T02:12:28;102397.91;;;12.41;100.00
29909;BME280;36247;51.952;6.146;2023-09-30T02:14:54;102404.94;;;12.39;100.00
29909;BME280;36247;51.952;6.146;2023-09-30T02:17:19;102404.13;;;12.42;100.00
29909;BME280;36247;51.952;6.146;2023-09-30T02:19:45;102386.41;;;12.41;100.00
29909;BME280;36247;51.952;6.146;2023-09-30T02:22:11;102379.88;;;12.31;100.00
29909;BME280;36247;51.952;6.146;2023-09-30T02:24:37;102397.16;;;12.18;100.00
29909;BME280;36247;51.952;6.146;2023-09-30T02:27:06;102400.09;;;12.26;100.00
29909;BME280;36247;51.952;6.146;2023-09-30T02:29:32;102405.31;;;12.23;100.00
29909;BME280;36247;51.952;6.146;2023-09-30T02:32:00;102405.84;;;12.40;100.00
29909;BME280;36247;51.952;6.146;2023-09-30T02:34:26;102420.84;;;12.38;100.00
29909;BME280;36247;51.952;6.146;2023-09-30T02:36:53;102417.78;;;12.25;100.00
29909;BME280;36247;51.952;6.146;2023-09-30T02:39:20;102416.03;;;12.26;100.00
29909;BME280;36247;51.952;6.146;2023-09-30T02:41:46;102410.63;;;12.23;100.00
29909;BME280;36247;51.952;6.146;2023-09-30T02:44:15;102416.56;;;12.14;100.00
29909;BME280;36247;51.952;6.146;2023-09-30T02:46:41;102405.31;;;12.23;100.00
29909;BME280;36247;51.952;6.146;2023-09-30T02:49:06;102402.66;;;12.23;100.00
29909;BME280;36247;51.952;6.146;2023-09-30T02:51:33;102397.56;;;12.03;100.00
29909;BME280;36247;51.952;6.146;2023-09-30T02:53:58;102396.03;;;12.10;100.00
29909;BME280;36247;51.952;6.146;2023-09-30T02:56:24;102394.22;;;12.09;100.00
29909;BME280;36247;51.952;6.146;2023-09-30T02:58:52;102389.06;;;12.13;100.00
29909;BME280;36247;51.952;6.146;2023-09-30T03:01:17;102388.25;;;12.16;100.00
29909;BME280;36247;51.952;6.146;2023-09-30T03:03:44;102385.84;;;12.24;100.00
29909;BME280;36247;51.952;6.146;2023-09-30T03:06:12;102393.03;;;12.26;100.00
29909;BME280;36247;51.952;6.146;2023-09-30T03:08:40;102397.44;;;11.98;100.00
29909;BME280;36247;51.952;6.146;2023-09-30T03:11:06;102396.94;;;11.85;100.00
29909;BME280;36247;51.952;6.146;2023-09-30T03:13:33;102399.16;;;11.71;100.00
29909;BME280;36247;51.952;6.146;2023-09-30T03:15:58;102397.47;;;12.00;100.00
29909;BME280;36247;51.952;6.146;2023-09-30T03:18:27;102397.75;;;12.08;100.00
29909;BME280;36247;51.952;6.146;2023-09-30T03:21:01;102393.81;;;12.24;100.00
29909;BME280;36247;51.952;6.146;2023-09-30T03:23:28;102397.34;;;12.23;100.00
29909;BME280;36247;51.952;6.146;2023-09-30T03:25:57;102396.31;;;12.19;100.00
29909;BME280;36247;51.952;6.146;2023-09-30T03:28:23;102400.09;;;12.26;100.00
29909;BME280;36247;51.952;6.146;2023-09-30T03:30:50;102401.44;;;12.13;100.00
29909;BME280;36247;51.952;6.146;2023-09-30T03:33:15;102406.03;;;12.17;100.00
29909;BME280;36247;51.952;6.146;2023-09-30T03:35:41;102407.28;;;12.30;100.00
29909;BME280;36247;51.952;6.146;2023-09-30T03:38:07;102406.44;;;12.31;100.00
29909;BME280;36247;51.952;6.146;2023-09-30T03:40:34;102386.06;;;12.31;100.00
29909;BME280;36247;51.952;6.146;2023-09-30T03:43:04;102393.03;;;12.26;100.00
29909;BME280;36247;51.952;6.146;2023-09-30T03:45:31;102393.88;;;12.25;100.00
29909;BME280;36247;51.952;6.146;2023-09-30T03:48:01;102392.19;;;12.27;100.00
29909;BME280;36247;51.952;6.146;2023-09-30T03:50:28;102386.97;;;12.30;100.00
29909;BME280;36247;51.952;6.146;2023-09-30T03:53:03;102396.28;;;12.46;100.00
29909;BME280;36247;51.952;6.146;2023-09-30T03:55:30;102386.56;;;12.47;100.00
29909;BME280;36247;51.952;6.146;2023-09-30T03:57:58;102378.75;;;12.51;100.00
29909;BME280;36247;51.952;6.146;2023-09-30T04:00:24;102381.69;;;12.32;100.00
29909;BME280;36247;51.952;6.146;2023-09-30T04:02:50;102380.66;;;12.28;100.00
29909;BME280;36247;51.952;6.146;2023-09-30T04:05:20;102387.63;;;12.23;100.00
29909;BME280;36247;51.952;6.146;2023-09-30T04:07:49;102401.69;;;12.21;100.00
29909;BME280;36247;51.952;6.146;2023-09-30T04:10:15;102388.66;;;12.28;100.00
29909;BME280;36247;51.952;6.146;2023-09-30T04:12:41;102391.56;;;12.36;100.00
29909;BME280;36247;51.952;6.146;2023-09-30T04:15:07;102379.59;;;12.50;100.00
29909;BME280;36247;51.952;6.146;2023-09-30T04:17:32;102381.22;;;12.45;100.00
29909;BME280;36247;51.952;6.146;2023-09-30T04:19:58;102391.19;;;12.52;100.00
29909;BME280;36247;51.952;6.146;2023-09-30T04:22:25;102395.00;;;12.62;100.00
29909;BME280;36247;51.952;6.146;2023-09-30T04:24:51;102406.13;;;12.49;100.00
29909;BME280;36247;51.952;6.146;2023-09-30T04:27:17;102411.03;;;12.35;100.00
29909;BME280;36247;51.952;6.146;2023-09-30T04:29:43;102409.06;;;12.58;100.00
29909;BME280;36247;51.952;6.146;2023-09-30T04:32:09;102408.63;;;12.44;100.00
29909;BME280;36247;51.952;6.146;2023-09-30T04:34:35;102400.09;;;12.55;100.00
29909;BME280;36247;51.952;6.146;2023-09-30T04:37:01;102404.03;;;12.67;100.00
29909;BME280;36247;51.952;6.146;2023-09-30T04:39:28;102405.03;;;12.71;100.00
29909;BME280;36247;51.952;6.146;2023-09-30T04:41:54;102402.50;;;12.76;100.00
29909;BME280;36247;51.952;6.146;2023-09-30T04:44:20;102392.31;;;12.61;100.00
29909;BME280;36247;51.952;6.146;2023-09-30T04:46:47;102396.72;;;12.60;100.00
29909;BME280;36247;51.952;6.146;2023-09-30T04:49:14;102402.22;;;12.66;100.00
29909;BME280;36247;51.952;6.146;2023-09-30T04:51:41;102402.06;;;12.60;100.00
29909;BME280;36247;51.952;6.146;2023-09-30T04:54:06;102403.34;;;12.75;100.00
29909;BME280;36247;51.952;6.146;2023-09-30T04:56:34;102404.38;;;12.78;100.00
29909;BME280;36247;51.952;6.146;2023-09-30T04:59:00;102411.16;;;12.68;100.00
29909;BME280;36247;51.952;6.146;2023-09-30T05:01:26;102409.38;;;12.67;100.00
29909;BME280;36247;51.952;6.146;2023-09-30T05:03:53;102404.47;;;12.52;100.00
29909;BME280;36247;51.952;6.146;2023-09-30T05:06:19;102409.16;;;12.61;100.00
29909;BME280;36247;51.952;6.146;2023-09-30T05:08:46;102417.47;;;12.72;100.00
29909;BME280;36247;51.952;6.146;2023-09-30T05:11:13;102419.22;;;12.72;100.00
29909;BME280;36247;51.952;6.146;2023-09-30T05:13:38;102414.03;;;12.76;100.00
29909;BME280;36247;51.952;6.146;2023-09-30T05:16:04;102420.84;;;12.66;100.00
29909;BME280;36247;51.952;6.146;2023-09-30T05:18:31;102416.78;;;12.79;100.00
29909;BME280;36247;51.952;6.146;2023-09-30T05:20:58;102421.44;;;12.86;100.00
29909;BME280;36247;51.952;6.146;2023-09-30T05:23:23;102422.00;;;12.76;100.00
29909;BME280;36247;51.952;6.146;2023-09-30T05:25:49;102425.00;;;12.87;100.00
29909;BME280;36247;51.952;6.146;2023-09-30T05:28:15;102418.06;;;12.92;100.00
29909;BME280;36247;51.952;6.146;2023-09-30T05:30:41;102422.00;;;13.05;100.00
29909;BME280;36247;51.952;6.146;2023-09-30T05:33:09;102418.28;;;13.00;100.00
29909;BME280;36247;51.952;6.146;2023-09-30T05:35:43;102420.19;;;13.04;100.00
29909;BME280;36247;51.952;6.146;2023-09-30T05:38:08;102417.78;;;13.13;100.00
29909;BME280;36247;51.952;6.146;2023-09-30T05:40:36;102416.84;;;13.11;100.00
29909;BME280;36247;51.952;6.146;2023-09-30T05:43:02;102424.16;;;13.18;100.00
29909;BME280;36247;51.952;6.146;2023-09-30T05:45:31;102419.72;;;13.19;100.00
29909;BME280;36247;51.952;6.146;2023-09-30T05:48:04;102414.47;;;13.22;100.00
29909;BME280;36247;51.952;6.146;2023-09-30T05:50:33;102420.81;;;13.26;100.00
29909;BME280;36247;51.952;6.146;2023-09-30T05:53:00;102418.94;;;13.23;100.00
29909;BME280;36247;51.952;6.146;2023-09-30T05:55:25;102425.88;;;13.18;100.00
29909;BME280;36247;51.952;6.146;2023-09-30T05:57:51;102425.94;;;13.19;100.00
29909;BME280;36247;51.952;6.146;2023-09-30T06:00:20;102434.03;;;13.24;100.00
29909;BME280;36247;51.952;6.146;2023-09-30T06:02:47;102427.66;;;13.17;100.00
29909;BME280;36247;51.952;6.146;2023-09-30T06:05:13;102439.22;;;13.19;100.00
29909;BME280;36247;51.952;6.146;2023-09-30T06:07:47;102432.31;;;13.25;100.00
29909;BME280;36247;51.952;6.146;2023-09-30T06:10:12;102436.50;;;13.16;100.00
29909;BME280;36247;51.952;6.146;2023-09-30T06:12:45;102440.75;;;13.40;100.00
29909;BME280;36247;51.952;6.146;2023-09-30T06:15:12;102434.31;;;13.33;100.00
29909;BME280;36247;51.952;6.146;2023-09-30T06:17:40;102437.84;;;13.32;100.00
29909;BME280;36247;51.952;6.146;2023-09-30T06:20:06;102440.81;;;13.43;100.00
29909;BME280;36247;51.952;6.146;2023-09-30T06:22:42;102453.19;;;13.41;100.00
29909;BME280;36247;51.952;6.146;2023-09-30T06:25:09;102437.69;;;13.58;100.00
29909;BME280;36247;51.952;6.146;2023-09-30T06:27:35;102436.50;;;13.47;100.00
29909;BME280;36247;51.952;6.146;2023-09-30T06:30:01;102444.25;;;13.39;100.00
29909;BME280;36247;51.952;6.146;2023-09-30T06:32:27;102439.09;;;13.44;100.00
29909;BME280;36247;51.952;6.146;2023-09-30T06:34:53;102442.84;;;13.52;100.00
29909;BME280;36247;51.952;6.146;2023-09-30T06:37:19;102442.00;;;13.53;100.00
29909;BME280;36247;51.952;6.146;2023-09-30T06:39:45;102436.06;;;13.63;100.00
29909;BME280;36247;51.952;6.146;2023-09-30T06:42:11;102435.22;;;13.66;100.00
29909;BME280;36247;51.952;6.146;2023-09-30T06:44:36;102443.16;;;13.64;100.00
29909;BME280;36247;51.952;6.146;2023-09-30T06:47:02;102446.84;;;13.68;100.00
29909;BME280;36247;51.952;6.146;2023-09-30T06:49:28;102453.00;;;13.67;100.00
29909;BME280;36247;51.952;6.146;2023-09-30T06:51:53;102458.66;;;13.79;100.00
29909;BME280;36247;51.952;6.146;2023-09-30T06:54:19;102466.31;;;13.67;100.00
29909;BME280;36247;51.952;6.146;2023-09-30T06:56:45;102470.19;;;13.78;100.00
29909;BME280;36247;51.952;6.146;2023-09-30T06:59:11;102467.97;;;13.95;100.00
29909;BME280;36247;51.952;6.146;2023-09-30T07:01:37;102474.44;;;14.05;100.00
29909;BME280;36247;51.952;6.146;2023-09-30T07:04:03;102469.53;;;13.87;100.00
29909;BME280;36247;51.952;6.146;2023-09-30T07:06:29;102462.03;;;14.07;100.00
29909;BME280;36247;51.952;6.146;2023-09-30T07:08:54;102476.53;;;14.17;100.00
29909;BME280;36247;51.952;6.146;2023-09-30T07:11:28;102482.59;;;14.11;100.00
29909;BME280;36247;51.952;6.146;2023-09-30T07:13:56;102492.97;;;14.00;100.00
29909;BME280;36247;51.952;6.146;2023-09-30T07:16:24;102491.47;;;14.11;100.00
29909;BME280;36247;51.952;6.146;2023-09-30T07:18:50;102480.19;;;14.22;100.00
29909;BME280;36247;51.952;6.146;2023-09-30T07:21:16;102490.72;;;14.17;100.00
29909;BME280;36247;51.952;6.146;2023-09-30T07:23:42;102507.88;;;14.28;100.00
29909;BME280;36247;51.952;6.146;2023-09-30T07:26:08;102503.16;;;14.53;100.00
29909;BME280;36247;51.952;6.146;2023-09-30T07:28:34;102505.13;;;14.60;100.00
29909;BME280;36247;51.952;6.146;2023-09-30T07:31:00;102516.97;;;14.72;100.00
29909;BME280;36247;51.952;6.146;2023-09-30T07:33:25;102511.63;;;14.72;100.00
29909;BME280;36247;51.952;6.146;2023-09-30T07:35:52;102514.97;;;14.61;100.00
29909;BME280;36247;51.952;6.146;2023-09-30T07:38:17;102524.03;;;14.70;100.00
29909;BME280;36247;51.952;6.146;2023-09-30T07:40:43;102517.88;;;15.12;100.00
29909;BME280;36247;51.952;6.146;2023-09-30T07:43:10;102519.31;;;15.37;100.00
29909;BME280;36247;51.952;6.146;2023-09-30T07:45:36;102520.75;;;15.65;100.00
29909;BME280;36247;51.952;6.146;2023-09-30T07:48:02;102532.13;;;15.55;100.00
29909;BME280;36247;51.952;6.146;2023-09-30T07:50:30;102534.91;;;15.61;100.00
29909;BME280;36247;51.952;6.146;2023-09-30T07:52:59;102531.28;;;15.56;100.00
29909;BME280;36247;51.952;6.146;2023-09-30T07:55:26;102525.50;;;15.79;100.00
29909;BME280;36247;51.952;6.146;2023-09-30T07:57:52;102525.13;;;16.06;100.00
29909;BME280;36247;51.952;6.146;2023-09-30T08:00:18;102524.88;;;15.92;100.00
29909;BME280;36247;51.952;6.146;2023-09-30T08:02:46;102523.09;;;15.93;100.00
29909;BME280;36247;51.952;6.146;2023-09-30T08:05:13;102529.88;;;16.24;100.00
29909;BME280;36247;51.952;6.146;2023-09-30T08:07:40;102531.50;;;16.14;100.00
29909;BME280;36247;51.952;6.146;2023-09-30T08:10:06;102535.75;;;16.03;100.00
29909;BME280;36247;51.952;6.146;2023-09-30T08:12:37;102543.34;;;16.27;100.00
29909;BME280;36247;51.952;6.146;2023-09-30T08:15:03;102539.28;;;16.52;100.00
29909;BME280;36247;51.952;6.146;2023-09-30T08:17:31;102542.06;;;16.57;100.00
29909;BME280;36247;51.952;6.146;2023-09-30T08:19:57;102542.63;;;16.40;100.00
29909;BME280;36247;51.952;6.146;2023-09-30T08:22:23;102543.34;;;16.27;100.00
29909;BME280;36247;51.952;6.146;2023-09-30T08:24:53;102532.88;;;16.41;100.00
29909;BME280;36247;51.952;6.146;2023-09-30T08:27:20;102517.75;;;16.45;100.00
29909;BME280;36247;51.952;6.146;2023-09-30T08:29:46;102527.09;;;16.71;100.00
29909;BME280;36247;51.952;6.146;2023-09-30T08:32:13;102523.13;;;17.03;100.00
29909;BME280;36247;51.952;6.146;2023-09-30T08:34:38;102535.06;;;16.68;100.00
29909;BME280;36247;51.952;6.146;2023-09-30T08:37:04;102529.38;;;17.02;100.00
29909;BME280;36247;51.952;6.146;2023-09-30T08:39:30;102518.84;;;17.16;100.00
29909;BME280;36247;51.952;6.146;2023-09-30T08:41:56;102512.53;;;17.14;100.00
29909;BME280;36247;51.952;6.146;2023-09-30T08:44:23;102507.31;;;17.20;100.00
29909;BME280;36247;51.952;6.146;2023-09-30T08:46:50;102513.88;;;17.47;100.00
29909;BME280;36247;51.952;6.146;2023-09-30T08:49:18;102512.25;;;17.61;100.00
29909;BME280;36247;51.952;6.146;2023-09-30T08:51:44;102517.31;;;17.35;100.00
29909;BME280;36247;51.952;6.146;2023-09-30T08:54:11;102508.69;;;17.60;100.00
29909;BME280;36247;51.952;6.146;2023-09-30T08:56:41;102514.09;;;17.67;100.00
29909;BME280;36247;51.952;6.146;2023-09-30T08:59:11;102521.06;;;17.52;100.00
29909;BME280;36247;51.952;6.146;2023-09-30T09:01:37;102524.47;;;17.39;100.00
29909;BME280;36247;51.952;6.146;2023-09-30T09:04:03;102528.00;;;17.32;100.00
29909;BME280;36247;51.952;6.146;2023-09-30T09:06:30;102524.34;;;17.28;100.00
29909;BME280;36247;51.952;6.146;2023-09-30T09:09:15;102526.59;;;17.63;100.00
29909;BME280;36247;51.952;6.146;2023-09-30T09:11:43;102531.09;;;17.69;100.00
29909;BME280;36247;51.952;6.146;2023-09-30T09:14:09;102519.56;;;17.77;100.00
29909;BME280;36247;51.952;6.146;2023-09-30T09:16:34;102512.09;;;17.47;100.00
29909;BME280;36247;51.952;6.146;2023-09-30T09:19:13;102511.38;;;17.62;100.00
29909;BME280;36247;51.952;6.146;2023-09-30T09:21:57;102512.38;;;17.73;100.00
29909;BME280;36247;51.952;6.146;2023-09-30T09:24:31;102516.00;;;17.75;100.00
29909;BME280;36247;51.952;6.146;2023-09-30T09:27:11;102515.06;;;17.75;100.00
29909;BME280;36247;51.952;6.146;2023-09-30T09:29:38;102516.84;;;17.74;100.00
29909;BME280;36247;51.952;6.146;2023-09-30T09:32:14;102529.59;;;17.94;100.00
29909;BME280;36247;51.952;6.146;2023-09-30T09:34:41;102531.75;;;18.29;100.00
29909;BME280;36247;51.952;6.146;2023-09-30T09:37:20;102528.31;;;18.47;100.00
29909;BME280;36247;51.952;6.146;2023-09-30T09:39:57;102532.13;;;18.78;100.00
29909;BME280;36247;51.952;6.146;2023-09-30T09:42:31;102549.03;;;18.68;100.00
29909;BME280;36247;51.952;6.146;2023-09-30T09:45:00;102551.19;;;19.17;100.00
29909;BME280;36247;51.952;6.146;2023-09-30T09:47:29;102566.16;;;18.82;100.00
29909;BME280;36247;51.952;6.146;2023-09-30T09:49:58;102564.34;;;18.81;100.00
29909;BME280;36247;51.952;6.146;2023-09-30T09:52:24;102566.66;;;19.73;100.00
29909;BME280;36247;51.952;6.146;2023-09-30T09:54:51;102560.47;;;20.05;100.00
29909;BME280;36247;51.952;6.146;2023-09-30T09:57:18;102557.81;;;20.73;100.00
29909;BME280;36247;51.952;6.146;2023-09-30T09:59:46;102557.72;;;21.27;100.00
29909;BME280;36247;51.952;6.146;2023-09-30T10:02:16;102557.63;;;21.49;100.00
29909;BME280;36247;51.952;6.146;2023-09-30T10:04:44;102564.06;;;21.09;100.00
29909;BME280;36247;51.952;6.146;2023-09-30T10:07:25;102564.13;;;20.82;100.00
29909;BME280;36247;51.952;6.146;2023-09-30T10:09:52;102566.75;;;21.17;100.00
29909;BME280;36247;51.952;6.146;2023-09-30T10:12:19;102575.78;;;20.98;100.00
29909;BME280;36247;51.952;6.146;2023-09-30T10:14:47;102558.22;;;22.13;100.00
29909;BME280;36247;51.952;6.146;2023-09-30T10:17:12;102560.75;;;22.34;100.00
29909;BME280;36247;51.952;6.146;2023-09-30T10:20:06;102567.16;;;22.16;100.00
29909;BME280;36247;51.952;6.146;2023-09-30T10:22:32;102572.50;;;22.30;100.00
29909;BME280;36247;51.952;6.146;2023-09-30T10:24:58;102576.75;;;22.61;100.00
29909;BME280;36247;51.952;6.146;2023-09-30T10:40:48;102538.78;;;24.74;100.00
29909;BME280;36247;51.952;6.146;2023-09-30T10:43:31;102546.34;;;23.27;100.00
29909;BME280;36247;51.952;6.146;2023-09-30T10:45:58;102534.59;;;23.98;100.00
29909;BME280;36247;51.952;6.146;2023-09-30T10:51:19;102543.88;;;23.10;100.00
29909;BME280;36247;51.952;6.146;2023-09-30T10:53:52;102533.31;;;23.58;95.39
29909;BME280;36247;51.952;6.146;2023-09-30T10:56:19;102524.28;;;24.23;100.00
29909;BME280;36247;51.952;6.146;2023-09-30T10:58:47;102526.41;;;22.53;100.00
29909;BME280;36247;51.952;6.146;2023-09-30T11:01:15;102538.81;;;21.40;100.00
29909;BME280;36247;51.952;6.146;2023-09-30T11:03:42;102527.72;;;21.97;100.00
29909;BME280;36247;51.952;6.146;2023-09-30T11:06:11;102529.75;;;21.61;100.00
29909;BME280;36247;51.952;6.146;2023-09-30T11:08:42;102534.50;;;20.38;100.00
29909;BME280;36247;51.952;6.146;2023-09-30T11:11:10;102540.63;;;21.27;100.00
29909;BME280;36247;51.952;6.146;2023-09-30T11:13:36;102539.25;;;23.18;100.00
29909;BME280;36247;51.952;6.146;2023-09-30T11:16:04;102524.84;;;23.88;90.91
29909;BME280;36247;51.952;6.146;2023-09-30T11:18:43;102515.06;;;25.32;75.19
29909;BME280;36247;51.952;6.146;2023-09-30T11:21:10;102523.91;;;23.22;90.37
29909;BME280;36247;51.952;6.146;2023-09-30T11:23:39;102519.72;;;23.63;90.21
29909;BME280;36247;51.952;6.146;2023-09-30T11:26:06;102531.31;;;23.01;84.70
29909;BME280;36247;51.952;6.146;2023-09-30T11:28:37;102539.16;;;22.34;82.67
29909;BME280;36247;51.952;6.146;2023-09-30T11:31:03;102539.78;;;21.22;100.00
29909;BME280;36247;51.952;6.146;2023-09-30T11:33:29;102533.53;;;21.01;100.00
29909;BME280;36247;51.952;6.146;2023-09-30T11:36:05;102539.88;;;20.49;100.00
29909;BME280;36247;51.952;6.146;2023-09-30T11:38:34;102534.53;;;20.68;100.00
29909;BME280;36247;51.952;6.146;2023-09-30T11:41:00;102536.28;;;20.87;100.00
29909;BME280;36247;51.952;6.146;2023-09-30T11:43:28;102540.78;;;20.51;100.00
29909;BME280;36247;51.952;6.146;2023-09-30T11:46:08;102530.00;;;20.23;100.00
29909;BME280;36247;51.952;6.146;2023-09-30T11:48:37;102525.53;;;20.50;100.00
29909;BME280;36247;51.952;6.146;2023-09-30T11:51:04;102522.81;;;19.99;100.00
29909;BME280;36247;51.952;6.146;2023-09-30T11:53:30;102512.06;;;20.72;100.00
29909;BME280;36247;51.952;6.146;2023-09-30T11:55:59;102507.34;;;21.42;100.00
29909;BME280;36247;51.952;6.146;2023-09-30T11:58:28;102500.16;;;21.41;99.38
29909;BME280;36247;51.952;6.146;2023-09-30T12:00:55;102495.66;;;21.40;100.00
29909;BME280;36247;51.952;6.146;2023-09-30T12:03:23;102493.81;;;21.53;100.00
29909;BME280;36247;51.952;6.146;2023-09-30T12:05:49;102494.78;;;21.35;100.00
29909;BME280;36247;51.952;6.146;2023-09-30T12:08:15;102497.50;;;21.28;100.00
29909;BME280;36247;51.952;6.146;2023-09-30T12:10:40;102499.25;;;21.39;100.00
29909;BME280;36247;51.952;6.146;2023-09-30T12:13:06;102498.06;;;21.94;95.95
29909;BME280;36247;51.952;6.146;2023-09-30T12:15:32;102498.31;;;21.47;95.70
29909;BME280;36247;51.952;6.146;2023-09-30T12:17:57;102502.16;;;20.88;100.00
29909;BME280;36247;51.952;6.146;2023-09-30T12:20:23;102511.97;;;21.06;95.16
29909;BME280;36247;51.952;6.146;2023-09-30T12:22:50;102520.03;;;21.10;97.96
29909;BME280;36247;51.952;6.146;2023-09-30T12:25:17;102508.44;;;20.96;100.00
29909;BME280;36247;51.952;6.146;2023-09-30T12:27:46;102503.84;;;21.24;99.66
29909;BME280;36247;51.952;6.146;2023-09-30T12:30:12;102502.06;;;21.19;100.00
29909;BME280;36247;51.952;6.146;2023-09-30T12:32:40;102498.41;;;21.30;100.00
29909;BME280;36247;51.952;6.146;2023-09-30T12:35:06;102493.88;;;21.36;98.49
29909;BME280;36247;51.952;6.146;2023-09-30T12:37:32;102491.13;;;21.51;100.00
29909;BME280;36247;51.952;6.146;2023-09-30T12:39:58;102493.94;;;21.28;99.16
29909;BME280;36247;51.952;6.146;2023-09-30T12:42:23;102499.41;;;21.09;96.52
29909;BME280;36247;51.952;6.146;2023-09-30T12:44:50;102486.81;;;21.13;97.92
29909;BME280;36247;51.952;6.146;2023-09-30T12:47:15;102471.25;;;21.66;93.15
29909;BME280;36247;51.952;6.146;2023-09-30T12:49:41;102474.06;;;21.52;92.50
29909;BME280;36247;51.952;6.146;2023-09-30T12:52:07;102467.97;;;21.04;95.17
29909;BME280;36247;51.952;6.146;2023-09-30T12:54:32;102466.88;;;21.42;96.04
29909;BME280;36247;51.952;6.146;2023-09-30T12:56:59;102465.03;;;21.61;93.27
29909;BME280;36247;51.952;6.146;2023-09-30T12:59:25;102450.47;;;21.82;99.04